Ana Sayfa
METAR-TAF:

METAR-TAF

Havaalanları :

Challis Airport

Challis, Idaho, Amerika Birleşik Devletleri

Enlem: 44-31-22N, Boylam: 114-12-54W, yükseklik: 1546 m

Güncel hava durumu gözlemi

Rapor saat 21:55 UTC de 1 saat ve 2 dakika önce yapıldı.
Rüzgar değişken yönden 4 kt
Sıcaklık 14°C
Nem 24%
Basınç 1015 hPa
Görüş mesafesi: 16.1 km
10000 ft yükseklikte parçalı çok bulutlu

METAR: KLLJ 212155Z AUTO VRB04KT 10SM BKN100 14/M06 A2997 RMK AO2 SLP134 T01441061

Saat: 16:57 (22:57 UTC)


TAF: eksik

4.000'den fazla havaalanı için hava durumu gözlemleri ve tahminleri (METAR ve TAF raporları).

Kullanılabilir istasyonlar harita üzerinde sarı ve kırmızı noktalarla gösterilir.

İstasyonun adını görmek için fareyi noktanın üzerinde gezdirin.

Sonrasında hava gözlem ve tahminlerini görmek için tıklayın.

Haritayı değiştirmek için: yaklaştırmak için siyah artı işaretli yeşil düğmeye ve uzaklaştırmak için de eksi işaretli düğmeye hızla tıklayın; bitişik haritalar için yeşil okları kullanın.


METAR-TAF: